sensor_id;sensor_type;location;lat;lon;timestamp;P1;durP1;ratioP1;P2;durP2;ratioP2
20589;SDS011;10453;50.810;12.540;2023-03-03T00:03:08;365.10;;;67.80;;
20589;SDS011;10453;50.810;12.540;2023-03-03T00:07:28;539.67;;;77.90;;
20589;SDS011;10453;50.810;12.540;2023-03-03T00:11:45;304.88;;;62.63;;
20589;SDS011;10453;50.810;12.540;2023-03-03T00:16:13;283.77;;;59.55;;
20589;SDS011;10453;50.810;12.540;2023-03-03T00:20:35;225.93;;;58.00;;
20589;SDS011;10453;50.810;12.540;2023-03-03T00:24:59;219.13;;;58.00;;
20589;SDS011;10453;50.810;12.540;2023-03-03T00:29:39;504.67;;;71.45;;
20589;SDS011;10453;50.810;12.540;2023-03-03T00:34:18;354.45;;;67.97;;
20589;SDS011;10453;50.810;12.540;2023-03-03T00:38:35;313.65;;;64.22;;
20589;SDS011;10453;50.810;12.540;2023-03-03T00:42:53;275.17;;;59.72;;
20589;SDS011;10453;50.810;12.540;2023-03-03T00:47:26;367.63;;;66.95;;
20589;SDS011;10453;50.810;12.540;2023-03-03T00:51:48;502.27;;;74.35;;
20589;SDS011;10453;50.810;12.540;2023-03-03T00:56:05;319.08;;;62.30;;
20589;SDS011;10453;50.810;12.540;2023-03-03T01:00:22;322.65;;;63.00;;
20589;SDS011;10453;50.810;12.540;2023-03-03T01:04:40;336.23;;;65.53;;
20589;SDS011;10453;50.810;12.540;2023-03-03T01:08:59;558.78;;;77.38;;
20589;SDS011;10453;50.810;12.540;2023-03-03T01:13:16;332.05;;;60.38;;
20589;SDS011;10453;50.810;12.540;2023-03-03T01:17:36;717.38;;;87.68;;
20589;SDS011;10453;50.810;12.540;2023-03-03T01:21:55;499.42;;;71.80;;
20589;SDS011;10453;50.810;12.540;2023-03-03T01:26:12;714.88;;;83.53;;
20589;SDS011;10453;50.810;12.540;2023-03-03T01:30:30;781.25;;;90.28;;
20589;SDS011;10453;50.810;12.540;2023-03-03T01:34:47;328.38;;;64.30;;
20589;SDS011;10453;50.810;12.540;2023-03-03T01:39:05;594.28;;;81.80;;
20589;SDS011;10453;50.810;12.540;2023-03-03T01:43:22;513.58;;;81.18;;
20589;SDS011;10453;50.810;12.540;2023-03-03T01:47:48;366.80;;;68.10;;
20589;SDS011;10453;50.810;12.540;2023-03-03T01:52:29;522.75;;;77.20;;
20589;SDS011;10453;50.810;12.540;2023-03-03T01:56:51;450.15;;;74.15;;
20589;SDS011;10453;50.810;12.540;2023-03-03T02:01:13;494.63;;;75.00;;
20589;SDS011;10453;50.810;12.540;2023-03-03T02:05:34;230.77;;;54.90;;
20589;SDS011;10453;50.810;12.540;2023-03-03T02:10:00;275.75;;;60.67;;
20589;SDS011;10453;50.810;12.540;2023-03-03T02:14:23;294.52;;;61.97;;
20589;SDS011;10453;50.810;12.540;2023-03-03T02:18:40;320.17;;;62.90;;
20589;SDS011;10453;50.810;12.540;2023-03-03T02:27:31;225.38;;;54.85;;
20589;SDS011;10453;50.810;12.540;2023-03-03T02:31:49;472.20;;;68.43;;
20589;SDS011;10453;50.810;12.540;2023-03-03T02:36:09;478.40;;;66.33;;
20589;SDS011;10453;50.810;12.540;2023-03-03T02:40:29;358.15;;;62.90;;
20589;SDS011;10453;50.810;12.540;2023-03-03T02:44:48;234.10;;;54.53;;
20589;SDS011;10453;50.810;12.540;2023-03-03T02:49:07;233.25;;;56.03;;
20589;SDS011;10453;50.810;12.540;2023-03-03T02:53:26;313.98;;;59.83;;
20589;SDS011;10453;50.810;12.540;2023-03-03T02:57:43;252.95;;;55.10;;
20589;SDS011;10453;50.810;12.540;2023-03-03T03:02:00;261.45;;;55.88;;
20589;SDS011;10453;50.810;12.540;2023-03-03T03:06:17;239.23;;;54.47;;
20589;SDS011;10453;50.810;12.540;2023-03-03T03:10:35;207.23;;;50.08;;
20589;SDS011;10453;50.810;12.540;2023-03-03T03:14:52;228.27;;;52.00;;
20589;SDS011;10453;50.810;12.540;2023-03-03T03:19:09;173.95;;;44.83;;
20589;SDS011;10453;50.810;12.540;2023-03-03T03:23:26;212.65;;;49.33;;
20589;SDS011;10453;50.810;12.540;2023-03-03T03:27:44;315.42;;;55.17;;
20589;SDS011;10453;50.810;12.540;2023-03-03T03:32:01;303.77;;;55.63;;
20589;SDS011;10453;50.810;12.540;2023-03-03T03:36:18;255.68;;;54.28;;
20589;SDS011;10453;50.810;12.540;2023-03-03T03:40:36;359.92;;;57.63;;
20589;SDS011;10453;50.810;12.540;2023-03-03T03:44:53;269.77;;;53.90;;
20589;SDS011;10453;50.810;12.540;2023-03-03T03:49:10;217.23;;;50.95;;
20589;SDS011;10453;50.810;12.540;2023-03-03T03:53:27;301.08;;;55.83;;
20589;SDS011;10453;50.810;12.540;2023-03-03T03:57:45;191.55;;;48.45;;
20589;SDS011;10453;50.810;12.540;2023-03-03T04:02:02;244.60;;;50.92;;
20589;SDS011;10453;50.810;12.540;2023-03-03T04:06:19;182.53;;;46.43;;
20589;SDS011;10453;50.810;12.540;2023-03-03T04:10:36;136.85;;;41.38;;
20589;SDS011;10453;50.810;12.540;2023-03-03T04:14:53;243.48;;;51.17;;
20589;SDS011;10453;50.810;12.540;2023-03-03T04:19:10;188.68;;;46.63;;
20589;SDS011;10453;50.810;12.540;2023-03-03T04:23:27;356.85;;;62.40;;
20589;SDS011;10453;50.810;12.540;2023-03-03T04:27:44;341.23;;;58.15;;
20589;SDS011;10453;50.810;12.540;2023-03-03T04:32:02;278.55;;;54.05;;
20589;SDS011;10453;50.810;12.540;2023-03-03T04:36:19;267.63;;;56.08;;
20589;SDS011;10453;50.810;12.540;2023-03-03T04:40:39;304.98;;;58.88;;
20589;SDS011;10453;50.810;12.540;2023-03-03T04:44:57;236.27;;;51.88;;
20589;SDS011;10453;50.810;12.540;2023-03-03T04:49:14;281.98;;;53.92;;
20589;SDS011;10453;50.810;12.540;2023-03-03T04:53:31;276.60;;;51.30;;
20589;SDS011;10453;50.810;12.540;2023-03-03T04:57:48;193.88;;;47.15;;
20589;SDS011;10453;50.810;12.540;2023-03-03T05:02:06;315.88;;;57.03;;
20589;SDS011;10453;50.810;12.540;2023-03-03T05:06:23;299.35;;;51.25;;
20589;SDS011;10453;50.810;12.540;2023-03-03T05:10:40;341.15;;;53.00;;
20589;SDS011;10453;50.810;12.540;2023-03-03T05:14:57;281.85;;;49.47;;
20589;SDS011;10453;50.810;12.540;2023-03-03T05:19:14;264.63;;;49.20;;
20589;SDS011;10453;50.810;12.540;2023-03-03T05:23:31;270.33;;;48.83;;
20589;SDS011;10453;50.810;12.540;2023-03-03T05:27:49;305.73;;;50.73;;
20589;SDS011;10453;50.810;12.540;2023-03-03T05:32:06;266.63;;;47.10;;
20589;SDS011;10453;50.810;12.540;2023-03-03T05:36:23;221.37;;;45.30;;
20589;SDS011;10453;50.810;12.540;2023-03-03T05:40:40;255.13;;;45.50;;
20589;SDS011;10453;50.810;12.540;2023-03-03T05:44:59;293.27;;;47.63;;
20589;SDS011;10453;50.810;12.540;2023-03-03T05:49:16;246.70;;;46.77;;
20589;SDS011;10453;50.810;12.540;2023-03-03T05:53:33;268.63;;;44.80;;
20589;SDS011;10453;50.810;12.540;2023-03-03T05:57:51;252.95;;;45.33;;
20589;SDS011;10453;50.810;12.540;2023-03-03T06:02:08;226.57;;;43.37;;
20589;SDS011;10453;50.810;12.540;2023-03-03T06:06:25;320.33;;;50.67;;
20589;SDS011;10453;50.810;12.540;2023-03-03T06:10:43;321.52;;;49.45;;
20589;SDS011;10453;50.810;12.540;2023-03-03T06:15:00;409.95;;;51.25;;
20589;SDS011;10453;50.810;12.540;2023-03-03T06:19:17;264.85;;;48.67;;
20589;SDS011;10453;50.810;12.540;2023-03-03T06:23:35;420.55;;;54.22;;
20589;SDS011;10453;50.810;12.540;2023-03-03T06:27:52;250.63;;;46.22;;
20589;SDS011;10453;50.810;12.540;2023-03-03T06:32:09;223.00;;;44.23;;
20589;SDS011;10453;50.810;12.540;2023-03-03T06:36:27;294.27;;;44.17;;
20589;SDS011;10453;50.810;12.540;2023-03-03T06:40:44;235.88;;;42.65;;
20589;SDS011;10453;50.810;12.540;2023-03-03T06:45:02;260.27;;;42.38;;
20589;SDS011;10453;50.810;12.540;2023-03-03T06:49:20;344.27;;;48.22;;
20589;SDS011;10453;50.810;12.540;2023-03-03T06:53:37;340.50;;;46.00;;
20589;SDS011;10453;50.810;12.540;2023-03-03T06:57:54;472.63;;;51.70;;
20589;SDS011;10453;50.810;12.540;2023-03-03T07:02:15;438.43;;;50.83;;
20589;SDS011;10453;50.810;12.540;2023-03-03T07:06:33;355.25;;;49.00;;
20589;SDS011;10453;50.810;12.540;2023-03-03T07:10:51;236.02;;;43.90;;
20589;SDS011;10453;50.810;12.540;2023-03-03T07:19:34;256.55;;;43.83;;
20589;SDS011;10453;50.810;12.540;2023-03-03T07:23:52;225.85;;;43.55;;
20589;SDS011;10453;50.810;12.540;2023-03-03T07:28:10;278.23;;;44.13;;
20589;SDS011;10453;50.810;12.540;2023-03-03T07:32:39;239.55;;;43.70;;
20589;SDS011;10453;50.810;12.540;2023-03-03T07:37:02;244.35;;;45.03;;
20589;SDS011;10453;50.810;12.540;2023-03-03T07:41:28;236.38;;;44.40;;
20589;SDS011;10453;50.810;12.540;2023-03-03T07:45:46;234.98;;;42.78;;
20589;SDS011;10453;50.810;12.540;2023-03-03T07:50:12;242.82;;;43.45;;
20589;SDS011;10453;50.810;12.540;2023-03-03T07:58:51;220.13;;;39.42;;
20589;SDS011;10453;50.810;12.540;2023-03-03T08:03:14;183.27;;;35.83;;
20589;SDS011;10453;50.810;12.540;2023-03-03T08:07:33;149.68;;;33.05;;
20589;SDS011;10453;50.810;12.540;2023-03-03T08:11:52;140.27;;;30.02;;
20589;SDS011;10453;50.810;12.540;2023-03-03T08:24:50;123.97;;;26.38;;
20589;SDS011;10453;50.810;12.540;2023-03-03T08:29:07;105.30;;;25.63;;
20589;SDS011;10453;50.810;12.540;2023-03-03T08:33:24;100.63;;;22.97;;
20589;SDS011;10453;50.810;12.540;2023-03-03T08:37:42;92.25;;;21.60;;
20589;SDS011;10453;50.810;12.540;2023-03-03T08:41:59;79.25;;;19.50;;
20589;SDS011;10453;50.810;12.540;2023-03-03T08:46:16;81.30;;;19.90;;
20589;SDS011;10453;50.810;12.540;2023-03-03T08:50:33;65.32;;;20.63;;
20589;SDS011;10453;50.810;12.540;2023-03-03T08:54:50;36.65;;;12.98;;
20589;SDS011;10453;50.810;12.540;2023-03-03T08:59:07;81.05;;;19.17;;
20589;SDS011;10453;50.810;12.540;2023-03-03T09:03:24;53.35;;;18.85;;
20589;SDS011;10453;50.810;12.540;2023-03-03T09:07:42;94.05;;;22.38;;
20589;SDS011;10453;50.810;12.540;2023-03-03T09:12:12;90.63;;;23.50;;
20589;SDS011;10453;50.810;12.540;2023-03-03T09:16:33;73.25;;;21.30;;
20589;SDS011;10453;50.810;12.540;2023-03-03T09:20:54;63.15;;;20.92;;
20589;SDS011;10453;50.810;12.540;2023-03-03T09:25:22;72.07;;;19.88;;
20589;SDS011;10453;50.810;12.540;2023-03-03T09:29:47;80.43;;;20.25;;
20589;SDS011;10453;50.810;12.540;2023-03-03T09:34:12;75.47;;;20.23;;
20589;SDS011;10453;50.810;12.540;2023-03-03T09:38:40;95.25;;;23.75;;
20589;SDS011;10453;50.810;12.540;2023-03-03T09:43:11;85.13;;;23.52;;
20589;SDS011;10453;50.810;12.540;2023-03-03T09:47:51;87.60;;;23.75;;
20589;SDS011;10453;50.810;12.540;2023-03-03T09:52:36;90.38;;;24.58;;
20589;SDS011;10453;50.810;12.540;2023-03-03T09:57:04;84.32;;;23.45;;
20589;SDS011;10453;50.810;12.540;2023-03-03T10:01:36;103.57;;;27.45;;
20589;SDS011;10453;50.810;12.540;2023-03-03T10:06:21;69.05;;;23.08;;
20589;SDS011;10453;50.810;12.540;2023-03-03T10:10:44;79.32;;;22.30;;
20589;SDS011;10453;50.810;12.540;2023-03-03T10:15:25;60.85;;;19.02;;
20589;SDS011;10453;50.810;12.540;2023-03-03T10:20:22;54.78;;;17.92;;
20589;SDS011;10453;50.810;12.540;2023-03-03T10:29:37;51.05;;;18.50;;
20589;SDS011;10453;50.810;12.540;2023-03-03T10:53:01;50.80;;;19.42;;
20589;SDS011;10453;50.810;12.540;2023-03-03T11:02:18;44.60;;;17.15;;
20589;SDS011;10453;50.810;12.540;2023-03-03T11:11:49;45.70;;;18.83;;
20589;SDS011;10453;50.810;12.540;2023-03-03T11:16:16;56.15;;;20.52;;
20589;SDS011;10453;50.810;12.540;2023-03-03T11:35:04;99.35;;;34.97;;
20589;SDS011;10453;50.810;12.540;2023-03-03T11:39:24;86.18;;;28.55;;
20589;SDS011;10453;50.810;12.540;2023-03-03T11:43:46;84.68;;;28.25;;
20589;SDS011;10453;50.810;12.540;2023-03-03T11:52:58;91.57;;;28.73;;
20589;SDS011;10453;50.810;12.540;2023-03-03T11:57:31;103.82;;;33.05;;
20589;SDS011;10453;50.810;12.540;2023-03-03T12:07:03;102.38;;;32.28;;
20589;SDS011;10453;50.810;12.540;2023-03-03T12:11:42;106.53;;;33.17;;
20589;SDS011;10453;50.810;12.540;2023-03-03T12:21:02;95.00;;;31.92;;
20589;SDS011;10453;50.810;12.540;2023-03-03T12:25:29;101.30;;;31.90;;
20589;SDS011;10453;50.810;12.540;2023-03-03T12:30:01;110.95;;;34.60;;
20589;SDS011;10453;50.810;12.540;2023-03-03T12:34:51;108.35;;;34.28;;
20589;SDS011;10453;50.810;12.540;2023-03-03T12:39:25;113.88;;;34.75;;
20589;SDS011;10453;50.810;12.540;2023-03-03T12:44:06;119.72;;;36.20;;
20589;SDS011;10453;50.810;12.540;2023-03-03T12:48:40;102.18;;;32.17;;
20589;SDS011;10453;50.810;12.540;2023-03-03T12:57:48;83.78;;;30.83;;
20589;SDS011;10453;50.810;12.540;2023-03-03T13:11:33;87.65;;;33.13;;
20589;SDS011;10453;50.810;12.540;2023-03-03T13:16:01;81.97;;;30.33;;
20589;SDS011;10453;50.810;12.540;2023-03-03T13:25:15;71.13;;;28.02;;
20589;SDS011;10453;50.810;12.540;2023-03-03T13:29:41;60.47;;;25.20;;
20589;SDS011;10453;50.810;12.540;2023-03-03T13:34:04;53.33;;;23.73;;
20589;SDS011;10453;50.810;12.540;2023-03-03T13:38:25;59.92;;;25.67;;
20589;SDS011;10453;50.810;12.540;2023-03-03T13:42:47;69.13;;;29.52;;
20589;SDS011;10453;50.810;12.540;2023-03-03T13:51:46;73.82;;;32.72;;
20589;SDS011;10453;50.810;12.540;2023-03-03T13:56:10;101.32;;;52.92;;
20589;SDS011;10453;50.810;12.540;2023-03-03T14:00:51;82.38;;;38.58;;
20589;SDS011;10453;50.810;12.540;2023-03-03T14:05:14;74.00;;;34.03;;
20589;SDS011;10453;50.810;12.540;2023-03-03T14:28:20;83.47;;;34.00;;
20589;SDS011;10453;50.810;12.540;2023-03-03T14:32:39;75.43;;;32.22;;
20589;SDS011;10453;50.810;12.540;2023-03-03T14:37:18;64.45;;;28.48;;
20589;SDS011;10453;50.810;12.540;2023-03-03T14:41:43;61.63;;;28.25;;
20589;SDS011;10453;50.810;12.540;2023-03-03T14:46:28;62.83;;;29.67;;
20589;SDS011;10453;50.810;12.540;2023-03-03T14:50:53;62.93;;;28.03;;
20589;SDS011;10453;50.810;12.540;2023-03-03T14:55:29;63.53;;;28.30;;
20589;SDS011;10453;50.810;12.540;2023-03-03T14:59:57;57.20;;;27.50;;
20589;SDS011;10453;50.810;12.540;2023-03-03T15:08:33;61.38;;;27.60;;
20589;SDS011;10453;50.810;12.540;2023-03-03T15:12:52;57.08;;;27.50;;
20589;SDS011;10453;50.810;12.540;2023-03-03T15:21:36;61.22;;;29.45;;
20589;SDS011;10453;50.810;12.540;2023-03-03T15:31:11;54.28;;;26.77;;
20589;SDS011;10453;50.810;12.540;2023-03-03T15:36:16;64.53;;;29.00;;
20589;SDS011;10453;50.810;12.540;2023-03-03T15:40:48;55.58;;;26.67;;
20589;SDS011;10453;50.810;12.540;2023-03-03T15:50:00;57.30;;;27.50;;
20589;SDS011;10453;50.810;12.540;2023-03-03T16:04:03;56.45;;;27.30;;
20589;SDS011;10453;50.810;12.540;2023-03-03T16:08:40;62.15;;;28.52;;
20589;SDS011;10453;50.810;12.540;2023-03-03T16:18:00;65.50;;;29.70;;
20589;SDS011;10453;50.810;12.540;2023-03-03T16:31:36;67.70;;;30.90;;
20589;SDS011;10453;50.810;12.540;2023-03-03T16:40:44;71.88;;;31.05;;
20589;SDS011;10453;50.810;12.540;2023-03-03T16:45:17;69.78;;;30.90;;
20589;SDS011;10453;50.810;12.540;2023-03-03T16:49:51;67.03;;;30.02;;
20589;SDS011;10453;50.810;12.540;2023-03-03T16:54:20;69.70;;;30.48;;
20589;SDS011;10453;50.810;12.540;2023-03-03T17:04:14;67.07;;;29.75;;
20589;SDS011;10453;50.810;12.540;2023-03-03T17:09:00;78.10;;;30.35;;
20589;SDS011;10453;50.810;12.540;2023-03-03T17:22:51;73.82;;;31.98;;
20589;SDS011;10453;50.810;12.540;2023-03-03T17:27:26;89.82;;;36.15;;
20589;SDS011;10453;50.810;12.540;2023-03-03T17:46:08;85.70;;;34.55;;
20589;SDS011;10453;50.810;12.540;2023-03-03T17:50:44;81.45;;;33.38;;
20589;SDS011;10453;50.810;12.540;2023-03-03T18:23:27;87.18;;;35.22;;
20589;SDS011;10453;50.810;12.540;2023-03-03T18:27:46;84.90;;;36.17;;
20589;SDS011;10453;50.810;12.540;2023-03-03T18:32:41;98.50;;;42.85;;
20589;SDS011;10453;50.810;12.540;2023-03-03T18:37:34;98.75;;;40.92;;
20589;SDS011;10453;50.810;12.540;2023-03-03T18:42:10;92.28;;;36.95;;
20589;SDS011;10453;50.810;12.540;2023-03-03T18:46:54;99.57;;;37.95;;
20589;SDS011;10453;50.810;12.540;2023-03-03T18:51:11;96.00;;;37.50;;
20589;SDS011;10453;50.810;12.540;2023-03-03T18:55:55;91.65;;;37.10;;
20589;SDS011;10453;50.810;12.540;2023-03-03T19:00:24;90.63;;;36.33;;
20589;SDS011;10453;50.810;12.540;2023-03-03T19:04:54;91.45;;;36.55;;
20589;SDS011;10453;50.810;12.540;2023-03-03T19:09:50;88.70;;;35.38;;
20589;SDS011;10453;50.810;12.540;2023-03-03T19:14:19;94.65;;;38.80;;
20589;SDS011;10453;50.810;12.540;2023-03-03T19:23:13;90.60;;;34.63;;
20589;SDS011;10453;50.810;12.540;2023-03-03T19:27:57;120.53;;;46.80;;
20589;SDS011;10453;50.810;12.540;2023-03-03T19:41:26;83.17;;;34.97;;
20589;SDS011;10453;50.810;12.540;2023-03-03T19:55:21;70.32;;;26.60;;
20589;SDS011;10453;50.810;12.540;2023-03-03T19:59:47;73.93;;;29.65;;
20589;SDS011;10453;50.810;12.540;2023-03-03T20:13:52;78.18;;;35.25;;
20589;SDS011;10453;50.810;12.540;2023-03-03T20:28:00;65.25;;;29.85;;
20589;SDS011;10453;50.810;12.540;2023-03-03T20:37:12;63.50;;;29.35;;
20589;SDS011;10453;50.810;12.540;2023-03-03T20:46:20;73.07;;;31.98;;
20589;SDS011;10453;50.810;12.540;2023-03-03T21:00:20;67.40;;;30.58;;
20589;SDS011;10453;50.810;12.540;2023-03-03T21:04:38;58.42;;;28.02;;
20589;SDS011;10453;50.810;12.540;2023-03-03T21:08:55;53.90;;;25.27;;
20589;SDS011;10453;50.810;12.540;2023-03-03T21:13:26;52.22;;;25.52;;
20589;SDS011;10453;50.810;12.540;2023-03-03T21:17:57;35.78;;;19.38;;
20589;SDS011;10453;50.810;12.540;2023-03-03T21:22:15;37.00;;;18.08;;
20589;SDS011;10453;50.810;12.540;2023-03-03T21:26:42;38.00;;;19.27;;
20589;SDS011;10453;50.810;12.540;2023-03-03T21:31:00;36.97;;;18.85;;
20589;SDS011;10453;50.810;12.540;2023-03-03T21:35:25;37.88;;;18.58;;
20589;SDS011;10453;50.810;12.540;2023-03-03T21:39:42;34.85;;;18.10;;
20589;SDS011;10453;50.810;12.540;2023-03-03T21:44:00;37.40;;;18.87;;
20589;SDS011;10453;50.810;12.540;2023-03-03T21:48:17;35.15;;;17.92;;
20589;SDS011;10453;50.810;12.540;2023-03-03T21:52:34;38.00;;;17.63;;
20589;SDS011;10453;50.810;12.540;2023-03-03T21:56:51;35.60;;;18.80;;
20589;SDS011;10453;50.810;12.540;2023-03-03T22:01:09;40.17;;;18.48;;
20589;SDS011;10453;50.810;12.540;2023-03-03T22:05:26;36.10;;;18.15;;
20589;SDS011;10453;50.810;12.540;2023-03-03T22:09:43;38.97;;;18.33;;
20589;SDS011;10453;50.810;12.540;2023-03-03T22:14:00;36.30;;;17.63;;
20589;SDS011;10453;50.810;12.540;2023-03-03T22:18:18;36.53;;;18.37;;
20589;SDS011;10453;50.810;12.540;2023-03-03T22:22:35;36.95;;;18.98;;
20589;SDS011;10453;50.810;12.540;2023-03-03T22:26:52;34.92;;;18.90;;
20589;SDS011;10453;50.810;12.540;2023-03-03T22:31:09;34.33;;;17.60;;
20589;SDS011;10453;50.810;12.540;2023-03-03T22:35:27;38.40;;;18.33;;
20589;SDS011;10453;50.810;12.540;2023-03-03T22:39:44;31.40;;;17.00;;
20589;SDS011;10453;50.810;12.540;2023-03-03T22:44:01;36.53;;;19.05;;
20589;SDS011;10453;50.810;12.540;2023-03-03T22:48:18;38.70;;;20.52;;
20589;SDS011;10453;50.810;12.540;2023-03-03T22:52:35;38.83;;;19.58;;
20589;SDS011;10453;50.810;12.540;2023-03-03T22:56:52;39.70;;;20.25;;
20589;SDS011;10453;50.810;12.540;2023-03-03T23:01:09;38.22;;;19.88;;
20589;SDS011;10453;50.810;12.540;2023-03-03T23:05:26;38.80;;;20.52;;
20589;SDS011;10453;50.810;12.540;2023-03-03T23:09:43;43.03;;;20.95;;
20589;SDS011;10453;50.810;12.540;2023-03-03T23:14:00;40.38;;;21.88;;
20589;SDS011;10453;50.810;12.540;2023-03-03T23:18:18;37.50;;;19.83;;
20589;SDS011;10453;50.810;12.540;2023-03-03T23:22:35;36.17;;;20.05;;
20589;SDS011;10453;50.810;12.540;2023-03-03T23:26:52;40.33;;;20.63;;
20589;SDS011;10453;50.810;12.540;2023-03-03T23:31:13;36.97;;;21.05;;
20589;SDS011;10453;50.810;12.540;2023-03-03T23:35:30;36.20;;;18.87;;
20589;SDS011;10453;50.810;12.540;2023-03-03T23:39:47;36.28;;;19.85;;
20589;SDS011;10453;50.810;12.540;2023-03-03T23:44:04;35.38;;;18.98;;
20589;SDS011;10453;50.810;12.540;2023-03-03T23:48:21;34.17;;;19.17;;
20589;SDS011;10453;50.810;12.540;2023-03-03T23:52:39;33.53;;;18.33;;
20589;SDS011;10453;50.810;12.540;2023-03-03T23:56:56;35.83;;;19.13;;
